Time;durP1;ratioP1;P1;durP2;ratioP2;P2;SDS_P1;SDS_P2;PMS_P1;PMS_P2;Temp;Humidity;BMP_temperature;BMP_pressure;BME280_temperature;BME280_humidity;BME280_pressure;Samples;Min_cycle;Max_cycle;Signal;HPM_P1;HPM_P2
2021/12/16 00:03:31;;;;;;;8.50;2.60;;;6.40;99.90;;;;;;4937907;29;20497;-91
2021/12/16 00:32:46;;;;;;;18.73;5.32;;;5.80;99.90;;;;;;4960394;29;20061;-91
2021/12/16 00:35:14;;;;;;;11.50;3.80;;;5.70;99.90;;;;;;4940620;29;20027;-91
2021/12/16 00:37:39;;;;;;;12.60;4.07;;;5.70;99.90;;;;;;4939313;29;20055;-91
2021/12/16 00:40:08;;;;;;;12.05;3.20;;;5.70;99.90;;;;;;4939327;29;20046;-91
2021/12/16 00:42:47;;;;;;;11.05;3.60;;;5.60;99.90;;;;;;4939212;29;20114;-91
2021/12/16 00:48:07;;;;;;;8.05;3.30;;;5.60;99.90;;;;;;4956129;29;20031;-91
2021/12/16 00:55:54;;;;;;;6.28;2.70;;;5.50;99.90;;;;;;4956291;29;20454;-90
2021/12/16 00:58:25;;;;;;;15.50;3.47;;;5.50;99.90;;;;;;4938841;29;20034;-91
2021/12/16 01:01:43;;;;;;;12.52;3.60;;;5.40;99.90;;;;;;4938799;29;20031;-90
2021/12/16 01:06:29;;;;;;;7.07;4.00;;;5.40;99.90;;;;;;4956931;29;20031;-91
2021/12/16 01:34:28;;;;;;;6.20;2.47;;;5.30;99.90;;;;;;4955833;29;20110;-89
2021/12/16 01:40:02;;;;;;;9.07;3.40;;;5.20;99.90;;;;;;4955831;29;20038;-90
2021/12/16 01:42:51;;;;;;;10.02;3.58;;;5.20;99.90;;;;;;4955190;29;20031;-91
2021/12/16 01:48:36;;;;;;;4.32;2.72;;;5.10;99.90;;;;;;4956032;29;20030;-91
2021/12/16 01:50:55;;;;;;;8.57;2.92;;;5.00;99.90;;;;;;4955185;29;20098;-90
2021/12/16 01:58:49;;;;;;;7.60;2.80;;;5.10;99.90;;;;;;4955638;29;20041;-91
2021/12/16 02:01:20;;;;;;;6.70;2.72;;;5.10;99.90;;;;;;4938125;29;20122;-90
2021/12/16 02:04:08;;;;;;;5.70;2.90;;;5.00;99.90;;;;;;4938215;29;20028;-91
2021/12/16 02:09:40;;;;;;;6.75;3.25;;;5.00;99.90;;;;;;4955187;29;20109;-91
2021/12/16 02:12:42;;;;;;;9.98;4.47;;;5.00;99.90;;;;;;4938180;29;20038;-91
2021/12/16 02:37:16;;;;;;;14.38;4.45;;;5.10;99.90;;;;;;4895384;29;20370;-91
2021/12/16 02:39:43;;;;;;;12.13;4.57;;;5.10;99.90;;;;;;4894883;29;20037;-91
2021/12/16 02:42:16;;;;;;;21.63;5.72;;;5.10;99.90;;;;;;4895345;29;20041;-91
2021/12/16 02:50:13;;;;;;;9.23;3.30;;;5.10;99.90;;;;;;4896593;29;20073;-91
2021/12/16 02:52:39;;;;;;;5.75;3.20;;;5.10;99.90;;;;;;4895911;29;20036;-92
2021/12/16 02:55:07;;;;;;;6.88;3.25;;;5.20;99.90;;;;;;4895577;29;20107;-90
2021/12/16 02:57:40;;;;;;;12.85;3.28;;;5.20;99.90;;;;;;4879913;29;20037;-91
2021/12/16 03:00:13;;;;;;;12.25;3.08;;;5.20;99.90;;;;;;4895905;29;20020;-91
2021/12/16 03:02:39;;;;;;;6.93;3.10;;;5.20;99.90;;;;;;4895777;29;20125;-90
2021/12/16 03:05:06;;;;;;;7.85;3.03;;;5.20;99.90;;;;;;4895390;29;20032;-92
2021/12/16 03:07:32;;;;;;;9.13;3.45;;;5.30;99.90;;;;;;4901534;29;20526;-90
2021/12/16 03:13:00;;;;;;;6.97;4.30;;;5.30;99.90;;;;;;4931618;29;20043;-91
2021/12/16 03:18:37;;;;;;;10.63;3.97;;;5.20;99.90;;;;;;4954336;29;20441;-91
2021/12/16 03:21:15;;;;;;;12.73;6.20;;;5.10;99.90;;;;;;4937120;29;20038;-91
2021/12/16 03:36:48;;;;;;;7.22;3.88;;;4.90;99.90;;;;;;4954262;29;20130;-90
2021/12/16 03:39:16;;;;;;;12.10;3.00;;;5.00;99.90;;;;;;4937003;29;20043;-91
2021/12/16 03:41:42;;;;;;;11.27;3.33;;;5.00;99.90;;;;;;4937831;29;20061;-90
2021/12/16 03:44:11;;;;;;;7.88;3.38;;;5.00;99.90;;;;;;4937532;29;20031;-92
2021/12/16 03:46:42;;;;;;;10.85;3.63;;;5.00;99.90;;;;;;4937153;29;20049;-91
2021/12/16 03:49:17;;;;;;;;;;;5.00;99.90;;;;;;4937887;28;20401;-90
2021/12/16 03:51:48;;;;;;;7.38;3.10;;;5.00;99.90;;;;;;4941146;29;19906;-91
2021/12/16 03:54:38;;;;;;;13.05;3.53;;;5.00;99.90;;;;;;4943830;29;20046;-91
2021/12/16 03:57:09;;;;;;;8.77;3.00;;;5.00;99.90;;;;;;4945074;29;20023;-92
2021/12/16 03:59:37;;;;;;;6.72;3.35;;;5.00;99.90;;;;;;4949518;29;20116;-91
2021/12/16 04:02:14;;;;;;;6.10;3.45;;;4.90;99.90;;;;;;4948664;29;20047;-91
2021/12/16 04:04:40;;;;;;;6.70;2.80;;;4.90;99.90;;;;;;4950507;29;20035;-92
2021/12/16 04:07:07;;;;;;;6.95;2.72;;;4.90;99.90;;;;;;4950838;29;20027;-91
2021/12/16 04:09:34;;;;;;;15.15;4.43;;;4.90;99.90;;;;;;4948661;29;20042;-90
2021/12/16 04:12:20;;;;;;;5.10;2.85;;;4.90;99.90;;;;;;4941207;29;20082;-92
2021/12/16 04:14:49;;;;;;;10.70;3.25;;;4.80;99.90;;;;;;4941001;29;20038;-90
2021/12/16 04:17:16;;;;;;;4.78;2.92;;;4.80;99.90;;;;;;4941126;29;20389;-91
2021/12/16 04:19:42;;;;;;;7.43;3.00;;;4.70;99.90;;;;;;4940651;29;20452;-91
2021/12/16 04:22:16;;;;;;;6.32;3.00;;;4.70;99.90;;;;;;4935472;29;20055;-91
2021/12/16 04:24:42;;;;;;;9.90;3.63;;;4.70;99.90;;;;;;4921270;29;20035;-92
2021/12/16 04:27:08;;;;;;;7.90;2.95;;;4.80;99.90;;;;;;4921186;29;20067;-91
2021/12/16 04:29:34;;;;;;;13.23;4.20;;;4.70;99.90;;;;;;4920994;29;20091;-91
2021/12/16 04:32:01;;;;;;;19.00;4.97;;;4.70;99.90;;;;;;4920894;29;20202;-91
2021/12/16 04:34:27;;;;;;;16.25;5.20;;;4.80;99.90;;;;;;4922185;29;20028;-91
2021/12/16 04:36:54;;;;;;;17.25;6.43;;;4.80;99.90;;;;;;4923370;29;20107;-91
2021/12/16 04:39:25;;;;;;;18.55;5.03;;;4.70;99.90;;;;;;4925014;29;20114;-91
2021/12/16 04:41:55;;;;;;;13.27;4.45;;;4.60;99.90;;;;;;4931730;29;20042;-91
2021/12/16 04:44:23;;;;;;;12.80;4.97;;;4.50;99.90;;;;;;4942175;29;20108;-91
2021/12/16 04:46:49;;;;;;;10.90;4.45;;;4.50;99.90;;;;;;4941320;29;20291;-91
2021/12/16 04:49:16;;;;;;;11.82;5.80;;;4.40;99.90;;;;;;4932112;29;20098;-91
2021/12/16 04:51:49;;;;;;;15.90;4.57;;;4.30;99.90;;;;;;4919060;29;20138;-91
2021/12/16 04:54:17;;;;;;;10.95;4.28;;;4.20;99.90;;;;;;4920606;29;20044;-92
2021/12/16 04:56:45;;;;;;;8.90;3.97;;;4.20;99.90;;;;;;4920457;29;20102;-91
2021/12/16 04:59:13;;;;;;;21.92;5.72;;;4.20;99.90;;;;;;4920416;29;20371;-90
2021/12/16 05:01:42;;;;;;;18.02;6.53;;;4.20;99.90;;;;;;4919946;29;20039;-91
2021/12/16 05:04:08;;;;;;;10.10;4.93;;;4.20;99.90;;;;;;4920426;29;20075;-91
2021/12/16 05:06:37;;;;;;;10.82;4.60;;;4.20;99.90;;;;;;4921074;29;20058;-91
2021/12/16 05:09:05;;;;;;;11.68;4.35;;;4.10;99.90;;;;;;4920693;29;20035;-91
2021/12/16 05:11:34;;;;;;;10.45;3.35;;;4.10;99.90;;;;;;4920910;29;20031;-92
2021/12/16 05:14:00;;;;;;;19.77;6.75;;;4.10;99.90;;;;;;4920232;29;20067;-92
2021/12/16 05:16:26;;;;;;;11.57;3.80;;;4.20;99.90;;;;;;4920618;29;20688;-91
2021/12/16 05:18:54;;;;;;;13.57;3.83;;;4.20;99.90;;;;;;4920491;29;20039;-90
2021/12/16 05:24:25;;;;;;;11.57;4.22;;;4.20;99.90;;;;;;4937221;29;20114;-90
2021/12/16 05:26:56;;;;;;;14.90;4.45;;;4.20;99.90;;;;;;4919918;29;20028;-92
2021/12/16 05:29:22;;;;;;;11.15;3.75;;;4.20;99.90;;;;;;4919721;29;20046;-91
2021/12/16 05:31:49;;;;;;;6.60;3.92;;;4.20;99.90;;;;;;4919807;29;20119;-91
2021/12/16 05:34:15;;;;;;;12.63;3.92;;;4.30;99.90;;;;;;4919753;29;20050;-90
2021/12/16 05:36:41;;;;;;;8.88;3.78;;;4.30;99.90;;;;;;4919917;29;20394;-92
2021/12/16 05:39:09;;;;;;;14.13;3.97;;;4.40;99.90;;;;;;4920034;29;20030;-91
2021/12/16 05:41:35;;;;;;;7.32;4.10;;;4.50;99.90;;;;;;4920204;29;20020;-90
2021/12/16 05:44:01;;;;;;;11.30;4.13;;;4.60;99.90;;;;;;4920347;29;20038;-91
2021/12/16 05:46:27;;;;;;;14.75;4.05;;;4.60;99.90;;;;;;4920497;29;20485;-91
2021/12/16 05:48:55;;;;;;;8.55;4.07;;;4.60;99.90;;;;;;4920238;29;20024;-91
2021/12/16 05:51:27;;;;;;;9.48;4.18;;;4.60;99.90;;;;;;4923407;29;20040;-92
2021/12/16 05:53:54;;;;;;;9.75;4.50;;;4.60;99.90;;;;;;4927014;29;20036;-91
2021/12/16 05:56:20;;;;;;;10.50;4.00;;;4.50;99.90;;;;;;4925486;29;20046;-90
2021/12/16 05:58:46;;;;;;;14.48;5.53;;;4.50;99.90;;;;;;4921230;29;20062;-90
2021/12/16 06:01:25;;;;;;;10.95;4.25;;;4.40;99.90;;;;;;4919375;29;20024;-91
2021/12/16 06:03:52;;;;;;;11.18;5.82;;;4.30;99.90;;;;;;4919152;29;20036;-92
2021/12/16 06:06:19;;;;;;;10.25;3.90;;;4.30;99.90;;;;;;4919613;29;20031;-91
2021/12/16 06:08:46;;;;;;;8.10;3.75;;;4.30;99.90;;;;;;4919477;29;20035;-91
2021/12/16 06:11:17;;;;;;;10.77;5.40;;;4.30;99.90;;;;;;4919519;29;20560;-90
2021/12/16 06:14:00;;;;;;;11.52;4.57;;;4.30;99.90;;;;;;4918705;29;20044;-91
2021/12/16 06:27:28;;;;;;;13.13;5.97;;;4.30;99.90;;;;;;4944050;29;20031;-92
2021/12/16 06:29:54;;;;;;;18.10;6.93;;;4.30;99.90;;;;;;4928086;29;20023;-91
2021/12/16 06:32:21;;;;;;;14.50;6.38;;;4.20;99.90;;;;;;4928567;29;20054;-91
2021/12/16 06:34:47;;;;;;;14.27;5.68;;;4.20;99.90;;;;;;4924206;29;20024;-91
2021/12/16 06:37:15;;;;;;;11.82;5.60;;;4.20;99.90;;;;;;4927575;29;20585;-91
2021/12/16 06:39:42;;;;;;;14.70;4.82;;;4.20;99.90;;;;;;4927808;29;20070;-92
2021/12/16 06:42:09;;;;;;;12.57;4.60;;;4.10;99.90;;;;;;4926994;29;20030;-90
2021/12/16 06:44:42;;;;;;;12.45;5.50;;;4.10;99.90;;;;;;4932480;29;20400;-92
2021/12/16 06:47:15;;;;;;;10.40;4.45;;;4.10;99.90;;;;;;4933996;29;20047;-92
2021/12/16 06:49:45;;;;;;;12.75;5.88;;;4.10;99.90;;;;;;4920976;29;20028;-93
2021/12/16 06:52:14;;;;;;;12.65;5.13;;;4.10;99.90;;;;;;4913474;29;20027;-91
2021/12/16 06:55:01;;;;;;;11.60;5.53;;;4.10;99.90;;;;;;4908324;29;20066;-93
2021/12/16 06:57:39;;;;;;;13.88;5.30;;;4.10;99.90;;;;;;4908848;29;20060;-91
2021/12/16 07:00:14;;;;;;;10.75;4.55;;;4.10;99.90;;;;;;4908681;29;20059;-91
2021/12/16 07:05:11;;;;;;;14.93;5.85;;;4.00;99.90;;;;;;4929602;29;20501;-93
2021/12/16 07:07:38;;;;;;;8.73;4.40;;;4.00;99.90;;;;;;4907567;29;20039;-93
2021/12/16 07:10:06;;;;;;;16.77;6.00;;;3.90;99.90;;;;;;4910201;29;20032;-91
2021/12/16 07:12:36;;;;;;;10.57;4.63;;;3.90;99.90;;;;;;4908801;29;20465;-93
2021/12/16 07:15:10;;;;;;;12.10;6.25;;;3.90;99.90;;;;;;4910289;29;20035;-91
2021/12/16 07:17:39;;;;;;;10.18;4.85;;;3.90;99.90;;;;;;4907757;29;20028;-92
2021/12/16 07:20:09;;;;;;;11.88;5.82;;;3.90;99.90;;;;;;4908236;29;20483;-91
2021/12/16 07:22:35;;;;;;;15.88;6.45;;;3.80;99.90;;;;;;4918029;29;20064;-91
2021/12/16 07:25:06;;;;;;;13.00;6.45;;;3.80;99.90;;;;;;4935614;29;20028;-92
2021/12/16 07:27:34;;;;;;;20.70;7.20;;;3.80;99.90;;;;;;4938293;29;20032;-92
2021/12/16 07:30:00;;;;;;;17.48;7.13;;;3.80;99.90;;;;;;4938076;29;20086;-92
2021/12/16 07:32:26;;;;;;;14.90;6.50;;;3.80;99.90;;;;;;4938085;29;20059;-92
2021/12/16 07:34:52;;;;;;;9.73;4.57;;;3.80;99.90;;;;;;4937875;29;20034;-92
2021/12/16 07:37:18;;;;;;;16.83;5.90;;;3.80;99.90;;;;;;4938283;29;20071;-93
2021/12/16 07:39:45;;;;;;;10.52;4.75;;;3.70;99.90;;;;;;4939167;29;20429;-92
2021/12/16 07:42:14;;;;;;;16.02;5.05;;;3.70;99.90;;;;;;4941081;29;20020;-92
2021/12/16 07:44:40;;;;;;;10.75;4.63;;;3.70;99.90;;;;;;4943107;29;20083;-92
2021/12/16 07:47:08;;;;;;;10.40;5.53;;;3.60;99.90;;;;;;4937603;29;20028;-92
2021/12/16 07:49:40;;;;;;;17.15;6.05;;;3.60;99.90;;;;;;4936425;29;20027;-92
2021/12/16 07:52:07;;;;;;;14.18;5.20;;;3.60;99.90;;;;;;4936597;29;20028;-92
2021/12/16 07:54:33;;;;;;;12.07;5.15;;;3.60;99.90;;;;;;4936777;29;20036;-91
2021/12/16 07:57:00;;;;;;;11.50;4.50;;;3.60;99.90;;;;;;4936251;29;20042;-94
2021/12/16 07:59:28;;;;;;;20.08;5.70;;;3.60;99.90;;;;;;4938313;29;20123;-91
2021/12/16 08:01:56;;;;;;;11.63;4.60;;;3.60;99.90;;;;;;4938196;29;20039;-92
2021/12/16 08:04:26;;;;;;;16.35;6.45;;;3.60;99.90;;;;;;4939962;29;20135;-92
2021/12/16 08:06:53;;;;;;;12.52;5.45;;;3.60;99.90;;;;;;4939461;29;20027;-92
2021/12/16 08:09:19;;;;;;;15.43;6.80;;;3.60;99.90;;;;;;4939479;29;20067;-93
2021/12/16 08:11:48;;;;;;;18.05;6.10;;;3.60;99.90;;;;;;4938595;29;20035;-93
2021/12/16 08:14:15;;;;;;;12.65;5.63;;;3.50;99.90;;;;;;4936113;29;20040;-93
2021/12/16 08:16:41;;;;;;;11.23;5.20;;;3.50;99.90;;;;;;4938089;29;20040;-92
2021/12/16 08:19:07;;;;;;;11.32;4.68;;;3.40;99.90;;;;;;4937874;29;20035;-91
2021/12/16 08:21:34;;;;;;;13.43;4.55;;;3.40;99.90;;;;;;4938634;29;20114;-90
2021/12/16 08:24:03;;;;;;;14.80;4.85;;;3.30;99.90;;;;;;4937171;29;20470;-92
2021/12/16 08:26:30;;;;;;;8.88;4.57;;;3.30;99.90;;;;;;4937646;29;20019;-90
2021/12/16 08:28:57;;;;;;;11.23;5.50;;;3.30;99.90;;;;;;4938137;29;20039;-91
2021/12/16 08:31:23;;;;;;;12.60;4.97;;;3.30;99.90;;;;;;4937262;29;20024;-92
2021/12/16 08:33:49;;;;;;;13.02;5.30;;;3.40;99.90;;;;;;4937517;29;20038;-91
2021/12/16 08:36:16;;;;;;;19.08;6.03;;;3.40;99.90;;;;;;4936334;29;20024;-92
2021/12/16 08:38:44;;;;;;;13.38;5.55;;;3.50;99.90;;;;;;4936850;29;20111;-92
2021/12/16 08:41:15;;;;;;;16.77;6.13;;;3.50;99.90;;;;;;4934700;29;20027;-92
2021/12/16 08:43:44;;;;;;;15.65;5.70;;;3.50;99.90;;;;;;4936663;29;20023;-92
2021/12/16 08:46:17;;;;;;;18.38;7.88;;;3.60;99.90;;;;;;4936747;29;20163;-92
2021/12/16 08:48:45;;;;;;;9.27;4.38;;;3.50;99.90;;;;;;4941348;29;20183;-92
2021/12/16 08:51:12;;;;;;;23.50;8.55;;;3.50;99.90;;;;;;4936280;29;20078;-91
2021/12/16 08:53:39;;;;;;;18.23;7.30;;;3.60;99.90;;;;;;4936841;29;20082;-91
2021/12/16 08:56:06;;;;;;;19.63;8.13;;;3.70;99.90;;;;;;4936112;29;20016;-91
2021/12/16 08:58:33;;;;;;;16.70;7.28;;;3.70;99.90;;;;;;4935677;29;20087;-90
2021/12/16 09:01:25;;;;;;;18.23;7.82;;;3.80;99.90;;;;;;4936140;29;20027;-92
2021/12/16 09:03:53;;;;;;;15.23;7.60;;;3.80;99.90;;;;;;4931841;29;20035;-94
2021/12/16 09:06:20;;;;;;;17.27;8.57;;;3.90;99.90;;;;;;4935625;29;20158;-93
2021/12/16 09:08:46;;;;;;;20.85;7.88;;;4.00;99.90;;;;;;4933074;29;20024;-93
2021/12/16 09:11:18;;;;;;;18.95;7.45;;;4.00;99.90;;;;;;4935497;29;20039;-90
2021/12/16 09:13:46;;;;;;;17.42;7.72;;;4.10;99.90;;;;;;4930412;29;20482;-92
2021/12/16 09:16:16;;;;;;;16.05;8.40;;;4.10;99.90;;;;;;4935982;29;20167;-92
2021/12/16 09:18:42;;;;;;;18.70;7.57;;;4.10;99.90;;;;;;4935654;29;20169;-92
2021/12/16 09:21:13;;;;;;;16.05;7.03;;;4.10;99.90;;;;;;4933557;29;20482;-93
2021/12/16 09:23:41;;;;;;;16.33;8.35;;;4.10;99.90;;;;;;4935417;29;20052;-93
2021/12/16 09:26:07;;;;;;;20.10;9.65;;;4.10;99.90;;;;;;4936980;29;20083;-93
2021/12/16 09:28:34;;;;;;;20.80;9.80;;;4.20;99.90;;;;;;4944197;29;20043;-94
2021/12/16 09:31:01;;;;;;;20.50;9.35;;;4.20;99.90;;;;;;4951371;29;20039;-95
2021/12/16 09:33:28;;;;;;;21.50;8.10;;;4.30;99.90;;;;;;4939918;29;20054;-94
2021/12/16 09:35:57;;;;;;;23.02;8.63;;;4.40;99.90;;;;;;4942875;29;20024;-92
2021/12/16 09:38:30;;;;;;;21.73;8.52;;;4.40;99.90;;;;;;4945361;29;20032;-94
2021/12/16 09:40:57;;;;;;;15.15;8.18;;;4.40;99.90;;;;;;4943846;29;20020;-95
2021/12/16 09:43:28;;;;;;;17.27;9.10;;;4.50;99.90;;;;;;4936932;29;20100;-93
2021/12/16 09:45:55;;;;;;;;;;;4.60;99.90;;;;;;4920563;29;20047;-94
2021/12/16 09:48:21;;;;;;;22.77;9.18;;;4.60;99.90;;;;;;4919421;29;19965;-94
2021/12/16 09:50:47;;;;;;;24.50;10.77;;;4.70;99.90;;;;;;4920808;29;20024;-93
2021/12/16 09:53:13;;;;;;;30.90;15.30;;;4.90;99.90;;;;;;4933439;29;20043;-93
2021/12/16 09:55:39;;;;;;;28.70;10.90;;;5.20;99.90;;;;;;4937595;29;20028;-93
2021/12/16 09:58:06;;;;;;;16.27;8.60;;;5.40;99.90;;;;;;4937364;29;20118;-95
2021/12/16 10:00:36;;;;;;;19.13;9.48;;;5.70;99.90;;;;;;4938661;29;20028;-94
2021/12/16 10:03:03;;;;;;;15.15;7.72;;;6.00;99.90;;;;;;4941235;29;20032;-93
2021/12/16 10:05:31;;;;;;;14.75;8.18;;;6.40;99.90;;;;;;4941221;29;20035;-92
2021/12/16 10:07:58;;;;;;;19.15;7.57;;;6.70;99.90;;;;;;4936527;29;20430;-92
2021/12/16 10:10:26;;;;;;;20.08;8.00;;;7.10;99.90;;;;;;4931669;29;20470;-93
2021/12/16 10:12:57;;;;;;;13.20;7.05;;;7.30;99.90;;;;;;4932389;29;20040;-94
2021/12/16 10:18:03;;;;;;;16.40;8.00;;;7.90;99.90;;;;;;4936508;29;20753;-94
2021/12/16 10:20:43;;;;;;;19.02;7.80;;;8.20;99.90;;;;;;4928109;29;20035;-93
2021/12/16 10:23:17;;;;;;;20.25;8.57;;;8.40;99.90;;;;;;4933731;29;20047;-94
2021/12/16 10:26:05;;;;;;;14.77;6.97;;;8.70;99.90;;;;;;4937825;29;20425;-94
2021/12/16 10:28:34;;;;;;;14.88;7.75;;;8.90;99.90;;;;;;4935653;29;20039;-94
2021/12/16 10:31:02;;;;;;;15.50;8.00;;;9.20;99.90;;;;;;4934776;29;20067;-93
2021/12/16 10:33:34;;;;;;;14.98;7.18;;;9.50;99.90;;;;;;4937641;29;20046;-93
2021/12/16 10:36:15;;;;;;;19.42;9.95;;;9.80;99.90;;;;;;4937761;29;20485;-93
2021/12/16 10:38:52;;;;;;;18.73;8.95;;;10.00;99.90;;;;;;4937262;29;20035;-94
2021/12/16 10:41:26;;;;;;;14.57;7.50;;;10.20;99.90;;;;;;4935526;29;20102;-93
2021/12/16 10:44:19;;;;;;;15.55;7.72;;;10.30;99.90;;;;;;4932028;29;20042;-93
2021/12/16 10:47:05;;;;;;;17.40;8.15;;;10.50;99.90;;;;;;4932756;29;20101;-94
2021/12/16 10:49:38;;;;;;;13.52;7.57;;;10.80;99.90;;;;;;4916898;29;20040;-94
2021/12/16 10:52:14;;;;;;;18.45;7.90;;;11.00;99.90;;;;;;4936774;28;20031;-94
2021/12/16 10:54:44;;;;;;;15.70;8.25;;;11.30;99.90;;;;;;4935674;29;20481;-94
2021/12/16 10:57:12;;;;;;;16.33;7.95;;;11.60;99.90;;;;;;4920564;29;20028;-93
2021/12/16 10:59:38;;;;;;;14.85;7.57;;;12.00;99.90;;;;;;4918830;29;20028;-94
2021/12/16 11:02:28;;;;;;;17.33;7.93;;;12.20;99.90;;;;;;4935463;29;20027;-94
2021/12/16 11:05:04;;;;;;;12.00;6.65;;;12.60;99.90;;;;;;4927484;29;20035;-94
2021/12/16 11:07:44;;;;;;;14.05;7.95;;;12.70;99.90;;;;;;4940483;29;20038;-94
2021/12/16 11:10:39;;;;;;;11.95;6.82;;;13.00;99.90;;;;;;4939328;29;20023;-95
2021/12/16 11:13:09;;;;;;;12.35;7.00;;;13.20;99.90;;;;;;4946705;29;20354;-94
2021/12/16 11:15:41;;;;;;;11.88;6.35;;;13.40;99.90;;;;;;4926697;29;20043;-92
2021/12/16 11:18:13;;;;;;;12.65;7.22;;;13.50;99.90;;;;;;4919914;29;20054;-92
2021/12/16 11:20:53;;;;;;;15.40;6.55;;;13.70;99.90;;;;;;4934199;29;20042;-94
2021/12/16 11:23:23;;;;;;;12.35;6.25;;;13.90;99.90;;;;;;4912329;29;20402;-93
2021/12/16 11:27:05;;;;;;;14.27;6.20;;;14.20;99.90;;;;;;4925252;29;20107;-95
2021/12/16 11:29:28;;;;;;;10.30;6.10;;;14.40;99.90;;;;;;4925204;29;20118;-94
2021/12/16 11:32:16;;;;;;;;;;;;;;;;;;;;;
2021/12/16 11:34:42;;;;;;;9.85;6.50;;;15.10;99.90;;;;;;4934758;29;20058;-94
2021/12/16 11:37:29;;;;;;;9.73;5.55;;;15.50;99.90;;;;;;4920036;29;20035;-93
2021/12/16 11:40:05;;;;;;;12.40;5.18;;;15.80;99.70;;;;;;4919630;29;20040;-94
2021/12/16 11:42:31;;;;;;;10.88;5.85;;;16.10;98.50;;;;;;4919442;29;20039;-93
2021/12/16 11:45:37;;;;;;;8.50;5.22;;;16.30;97.70;;;;;;4919237;29;20024;-92
2021/12/16 11:48:47;;;;;;;;;;;;;;;;;;;;;
2021/12/16 11:51:54;;;;;;;8.30;5.10;;;16.90;95.40;;;;;;4856665;29;20362;-93
2021/12/16 11:54:40;;;;;;;8.35;4.75;;;17.20;94.50;;;;;;4857479;29;20233;-93
2021/12/16 11:57:20;;;;;;;9.88;4.78;;;17.60;93.50;;;;;;4842272;29;20488;-94
2021/12/16 11:59:55;;;;;;;16.15;5.55;;;17.90;92.50;;;;;;4842175;29;20150;-94
2021/12/16 12:02:40;;;;;;;13.18;6.03;;;18.00;91.40;;;;;;4842947;29;20119;-94
2021/12/16 12:52:50;;;;;;;6.80;3.22;;;19.50;76.70;;;;;;5750504;23;21162;-91
2021/12/16 12:55:28;;;;;;;11.30;4.13;;;19.30;76.20;;;;;;4885417;29;20037;-92
2021/12/16 12:58:03;;;;;;;7.53;3.90;;;19.30;76.50;;;;;;4895789;29;20550;-92
2021/12/16 13:00:37;;;;;;;9.23;3.47;;;19.30;76.40;;;;;;4886496;29;20037;-93
2021/12/16 13:03:11;;;;;;;7.43;3.67;;;19.30;75.80;;;;;;4883780;29;20638;-93
2021/12/16 13:05:37;;;;;;;10.45;5.25;;;19.30;75.40;;;;;;4883905;29;20033;-91
2021/12/16 13:08:07;;;;;;;6.57;3.67;;;19.10;75.40;;;;;;4882934;29;20021;-91
2021/12/16 13:10:40;;;;;;;6.70;2.88;;;18.80;75.80;;;;;;4882449;29;20053;-92
2021/12/16 13:15:57;;;;;;;4.50;2.10;;;18.90;75.30;;;;;;4898547;29;20119;-92
2021/12/16 13:27:01;;;;;;;7.43;2.55;;;19.20;73.70;;;;;;4900493;29;20041;-93
2021/12/16 13:29:35;;;;;;;5.00;1.90;;;19.50;73.40;;;;;;4919935;29;20056;-93
2021/12/16 13:32:16;;;;;;;5.85;2.08;;;19.60;72.40;;;;;;4883182;29;20128;-92
2021/12/16 13:35:09;;;;;;;5.03;2.70;;;19.70;71.30;;;;;;4883057;29;20045;-93
2021/12/16 13:37:39;;;;;;;6.82;2.15;;;19.80;70.80;;;;;;4883105;29;20036;-91
2021/12/16 13:40:14;;;;;;;5.50;2.30;;;19.80;71.10;;;;;;4883053;29;20030;-93
2021/12/16 13:42:57;;;;;;;6.75;2.78;;;19.60;71.20;;;;;;4882945;29;20025;-93
2021/12/16 13:45:30;;;;;;;4.95;2.00;;;19.00;71.60;;;;;;4882695;29;20029;-93
2021/12/16 14:16:36;;;;;;;2.53;1.58;;;16.70;76.80;;;;;;4823019;29;20030;-93
2021/12/16 14:41:37;;;;;;;13.48;4.43;;;13.30;84.10;;;;;;4827699;29;20042;-93
2021/12/16 14:45:11;;;;;;;8.32;4.20;;;13.00;85.60;;;;;;4826363;29;20030;-93
2021/12/16 14:47:11;;;;;;;11.38;4.05;;;12.80;86.80;;;;;;4854922;29;20119;-90
2021/12/16 14:49:42;;;;;;;11.27;3.72;;;12.50;87.90;;;;;;4881600;29;20040;-91
2021/12/16 14:52:18;;;;;;;9.25;4.88;;;12.40;89.20;;;;;;4882146;29;20529;-91
2021/12/16 14:54:54;;;;;;;9.73;2.65;;;12.30;90.10;;;;;;4881356;29;20525;-92
2021/12/16 14:57:27;;;;;;;3.20;1.90;;;12.10;90.50;;;;;;4881879;29;20037;-91
2021/12/16 14:59:53;;;;;;;6.72;2.70;;;12.00;91.00;;;;;;4881658;29;20061;-91
2021/12/16 15:02:24;;;;;;;7.85;2.58;;;11.90;91.40;;;;;;4882278;29;20033;-92
2021/12/16 15:04:50;;;;;;;5.22;2.50;;;11.80;91.80;;;;;;4884966;29;20025;-90
2021/12/16 15:07:38;;;;;;;4.00;2.42;;;11.80;92.20;;;;;;4887908;29;20028;-93
2021/12/16 15:10:07;;;;;;;6.72;2.80;;;11.70;92.70;;;;;;4883000;29;20079;-93
2021/12/16 15:12:44;;;;;;;5.80;3.10;;;11.60;92.90;;;;;;4881818;29;20043;-93
2021/12/16 15:42:55;;;;;;;5.15;2.75;;;10.90;96.60;;;;;;4898629;29;20479;-91
2021/12/16 15:45:30;;;;;;;4.82;3.03;;;10.80;97.00;;;;;;4882457;29;20029;-93
2021/12/16 15:48:00;;;;;;;7.28;3.40;;;10.70;97.50;;;;;;4886038;29;20039;-93
2021/12/16 15:50:35;;;;;;;5.90;3.35;;;10.70;97.90;;;;;;4885226;29;20099;-93
2021/12/16 15:53:06;;;;;;;10.60;5.47;;;10.60;98.20;;;;;;4885462;29;20499;-92
2021/12/16 15:55:52;;;;;;;11.00;5.40;;;10.50;98.60;;;;;;4885283;29;20132;-93
2021/12/16 15:58:21;;;;;;;48.55;21.35;;;10.40;99.00;;;;;;4884977;29;20084;-91
2021/12/16 16:00:51;;;;;;;21.13;9.00;;;10.30;99.40;;;;;;4884640;29;20558;-91
2021/12/16 16:03:20;;;;;;;11.52;4.70;;;10.20;99.70;;;;;;4885457;29;20088;-94
2021/12/16 16:05:52;;;;;;;10.10;3.92;;;10.10;99.90;;;;;;4890010;29;20432;-93
2021/12/16 16:08:20;;;;;;;10.00;3.83;;;10.00;99.90;;;;;;4880752;29;20027;-92
2021/12/16 16:10:50;;;;;;;8.60;2.80;;;9.90;99.90;;;;;;4883329;29;20032;-93
2021/12/16 16:13:23;;;;;;;8.60;3.15;;;9.90;99.90;;;;;;4883898;29;20047;-92
2021/12/16 16:15:51;;;;;;;6.57;3.00;;;9.80;99.90;;;;;;4881328;29;20029;-94
2021/12/16 16:21:05;;;;;;;9.65;3.00;;;9.60;99.90;;;;;;4899797;29;20031;-93
2021/12/16 16:23:34;;;;;;;4.88;2.83;;;9.50;99.90;;;;;;4883665;29;20040;-92
2021/12/16 16:26:07;;;;;;;7.13;2.95;;;9.40;99.90;;;;;;4886026;29;20368;-94
2021/12/16 16:28:34;;;;;;;7.65;3.70;;;9.40;99.90;;;;;;4884584;29;20040;-93
2021/12/16 16:31:01;;;;;;;6.43;3.20;;;9.20;99.90;;;;;;4882550;29;20517;-91
2021/12/16 16:33:31;;;;;;;5.70;2.65;;;9.10;99.90;;;;;;4883607;29;20403;-91
2021/12/16 16:36:01;;;;;;;6.07;3.28;;;9.10;99.90;;;;;;4883308;29;20035;-93
2021/12/16 16:38:38;;;;;;;6.20;4.10;;;9.00;99.90;;;;;;4883549;29;20033;-94
2021/12/16 16:41:09;;;;;;;8.82;4.70;;;8.90;99.90;;;;;;4883025;29;20029;-91
2021/12/16 16:43:50;;;;;;;9.77;5.13;;;8.80;99.90;;;;;;4882958;29;20044;-93
2021/12/16 16:46:30;;;;;;;7.97;5.03;;;8.70;99.90;;;;;;4882443;29;20028;-94
2021/12/16 16:49:10;;;;;;;11.75;4.43;;;8.70;99.90;;;;;;4883147;29;20036;-91
2021/12/16 16:51:45;;;;;;;12.32;5.00;;;8.60;99.90;;;;;;4877577;29;20507;-91
2021/12/16 16:54:18;;;;;;;14.50;6.05;;;8.60;99.90;;;;;;4881265;29;20148;-92
2021/12/16 16:56:46;;;;;;;11.55;5.32;;;8.60;99.90;;;;;;4882068;29;20064;-92
2021/12/16 16:59:15;;;;;;;9.35;4.50;;;8.50;99.90;;;;;;4879716;29;20044;-93
2021/12/16 17:01:42;;;;;;;9.43;4.80;;;8.50;99.90;;;;;;4882653;29;20111;-92
2021/12/16 17:04:13;;;;;;;10.48;5.07;;;8.40;99.90;;;;;;4883069;29;20229;-93
2021/12/16 17:06:42;;;;;;;;;;;8.40;99.90;;;;;;4883082;29;20047;-93
2021/12/16 17:09:08;;;;;;;9.80;5.05;;;8.30;99.90;;;;;;4883304;29;19915;-93
2021/12/16 17:11:45;;;;;;;12.27;4.53;;;8.20;99.90;;;;;;4883071;29;20043;-92
2021/12/16 17:14:19;;;;;;;9.02;4.88;;;8.20;99.90;;;;;;4882655;29;20065;-93
2021/12/16 17:19:48;;;;;;;8.68;4.72;;;8.10;99.90;;;;;;4899650;29;20131;-93
2021/12/16 17:22:24;;;;;;;14.13;6.15;;;8.00;99.90;;;;;;4883082;29;20399;-92
2021/12/16 17:24:51;;;;;;;9.23;5.30;;;8.00;99.90;;;;;;4882284;29;20042;-92
2021/12/16 17:27:20;;;;;;;12.05;5.85;;;7.90;99.90;;;;;;4882379;29;20028;-92
2021/12/16 17:29:54;;;;;;;11.15;6.05;;;7.90;99.90;;;;;;4882320;29;20085;-94
2021/12/16 17:32:30;;;;;;;11.20;5.60;;;7.80;99.90;;;;;;4886175;29;20148;-93
2021/12/16 17:35:06;;;;;;;11.02;6.13;;;7.70;99.90;;;;;;4882672;29;20028;-92
2021/12/16 17:37:52;;;;;;;10.05;5.97;;;7.60;99.90;;;;;;4882580;29;20028;-91
2021/12/16 17:40:20;;;;;;;12.15;6.13;;;7.40;99.90;;;;;;4883455;29;20129;-92
2021/12/16 17:42:48;;;;;;;15.50;6.50;;;7.30;99.90;;;;;;4893338;29;20053;-92
2021/12/16 17:45:18;;;;;;;16.08;6.93;;;7.20;99.90;;;;;;4884269;29;20032;-91
2021/12/16 17:47:46;;;;;;;13.60;6.50;;;7.10;99.90;;;;;;4883222;29;20029;-93
2021/12/16 17:50:17;;;;;;;15.15;7.55;;;7.10;99.90;;;;;;4883863;29;20048;-91
2021/12/16 17:52:49;;;;;;;17.48;9.23;;;7.00;99.90;;;;;;4885151;29;20062;-95
2021/12/16 17:55:49;;;;;;;16.13;7.93;;;6.90;99.90;;;;;;4881803;29;20040;-94
2021/12/16 17:58:29;;;;;;;18.00;9.07;;;6.90;99.90;;;;;;4891229;29;20033;-94
2021/12/16 18:01:42;;;;;;;14.02;7.90;;;6.90;99.90;;;;;;4901801;29;20039;-94
2021/12/16 18:04:20;;;;;;;15.52;8.20;;;6.90;99.90;;;;;;4897258;29;20032;-92